Time;durP1;ratioP1;P1;durP2;ratioP2;P2;SDS_P1;SDS_P2;PMS_P1;PMS_P2;Temp;Humidity;BMP_temperature;BMP_pressure;BME280_temperature;BME280_humidity;BME280_pressure;Samples;Min_cycle;Max_cycle;Signal;HPM_P1;HPM_P2
2022/06/07 00:02:00;;;;;;;3.58;1.40;;;21.30;49.70;;;;;;5035045;28;20045;-58
2022/06/07 00:04:26;;;;;;;8.23;1.42;;;21.30;49.60;;;;;;5035126;28;20104;-58
2022/06/07 00:06:52;;;;;;;2.35;1.20;;;21.30;49.60;;;;;;5002130;28;20033;-58
2022/06/07 00:09:17;;;;;;;7.45;1.85;;;21.30;49.60;;;;;;5001088;28;20023;-58
2022/06/07 00:11:44;;;;;;;3.95;1.50;;;21.30;49.50;;;;;;5033399;28;20029;-58
2022/06/07 00:14:10;;;;;;;3.03;1.40;;;21.30;49.60;;;;;;5033590;28;20037;-57
2022/06/07 00:16:36;;;;;;;6.00;1.42;;;21.30;49.50;;;;;;5033508;28;20049;-58
2022/06/07 00:19:02;;;;;;;4.65;1.50;;;21.20;49.50;;;;;;5034782;28;20061;-55
2022/06/07 00:21:29;;;;;;;4.97;1.30;;;21.30;49.50;;;;;;5094952;28;20028;-57
2022/06/07 00:24:04;;;;;;;3.60;1.52;;;21.30;49.40;;;;;;5095041;28;20012;-57
2022/06/07 00:26:30;;;;;;;3.30;1.65;;;21.20;49.40;;;;;;5094871;28;20020;-56
2022/06/07 00:28:55;;;;;;;5.45;1.58;;;21.30;49.40;;;;;;5077207;28;20100;-55
2022/06/07 00:31:21;;;;;;;2.88;1.27;;;21.20;49.30;;;;;;5060606;28;20487;-56
2022/06/07 00:33:47;;;;;;;3.78;1.50;;;21.20;49.30;;;;;;5095074;28;20039;-56
2022/06/07 00:36:13;;;;;;;4.10;1.63;;;21.20;49.30;;;;;;5060840;28;20103;-58
2022/06/07 00:38:42;;;;;;;3.00;1.27;;;21.20;49.30;;;;;;5077122;28;20070;-56
2022/06/07 00:41:07;;;;;;;3.22;1.33;;;21.20;49.30;;;;;;5095074;28;20032;-57
2022/06/07 00:43:33;;;;;;;6.70;1.52;;;21.20;49.30;;;;;;5095963;28;20016;-58
2022/06/07 00:45:59;;;;;;;3.63;1.50;;;21.20;49.30;;;;;;5077153;28;20551;-55
2022/06/07 00:48:25;;;;;;;2.67;1.33;;;21.20;49.30;;;;;;5096158;28;20012;-57
2022/06/07 00:51:11;;;;;;;4.30;1.60;;;21.20;49.30;;;;;;5077635;28;20364;-58
2022/06/07 00:53:37;;;;;;;2.53;1.10;;;21.20;49.20;;;;;;5096102;28;20087;-54
2022/06/07 00:56:03;;;;;;;4.60;1.58;;;21.20;49.10;;;;;;5094681;28;20043;-58
2022/06/07 00:58:30;;;;;;;2.92;1.48;;;21.20;49.10;;;;;;5097551;28;20027;-58
2022/06/07 01:00:56;;;;;;;3.22;1.48;;;21.20;49.10;;;;;;5100406;28;20086;-59
2022/06/07 01:03:22;;;;;;;3.50;1.40;;;21.20;49.20;;;;;;5098974;28;20012;-58
2022/06/07 01:05:49;;;;;;;3.70;1.50;;;21.20;49.10;;;;;;5077629;28;20016;-58
2022/06/07 01:10:59;;;;;;;2.33;1.08;;;21.20;49.10;;;;;;5095880;28;20039;-56
2022/06/07 01:13:27;;;;;;;3.47;1.20;;;21.20;49.00;;;;;;5095738;28;20386;-58
2022/06/07 01:16:18;;;;;;;4.05;1.45;;;21.20;49.10;;;;;;5097047;28;20016;-58
2022/06/07 01:18:44;;;;;;;3.25;1.48;;;21.20;49.00;;;;;;5094091;28;20028;-58
2022/06/07 01:21:10;;;;;;;2.42;1.20;;;21.20;49.00;;;;;;5098346;28;20027;-58
2022/06/07 01:23:36;;;;;;;3.25;1.30;;;21.20;49.00;;;;;;5078145;28;20020;-59
2022/06/07 01:26:02;;;;;;;4.68;1.30;;;21.20;49.00;;;;;;5060538;28;20017;-59
2022/06/07 01:28:27;;;;;;;2.75;1.30;;;21.20;49.00;;;;;;5060634;28;20021;-57
2022/06/07 01:30:56;;;;;;;3.05;1.30;;;21.20;49.00;;;;;;5076171;28;20048;-58
2022/06/07 01:33:23;;;;;;;2.90;1.23;;;21.10;48.90;;;;;;5076718;28;20646;-58
2022/06/07 01:36:03;;;;;;;2.17;1.27;;;21.20;48.90;;;;;;5077063;28;20013;-58
2022/06/07 01:38:33;;;;;;;2.60;1.15;;;21.10;48.90;;;;;;5077466;28;20017;-58
2022/06/07 01:43:43;;;;;;;2.20;1.23;;;21.10;48.90;;;;;;5059792;28;20036;-57
2022/06/07 01:46:09;;;;;;;2.85;1.23;;;21.10;48.90;;;;;;5076611;28;20024;-58
2022/06/07 01:48:34;;;;;;;4.50;1.23;;;21.10;48.90;;;;;;5077709;28;20080;-58
2022/06/07 01:51:02;;;;;;;2.20;1.20;;;21.10;48.90;;;;;;5078394;28;20086;-58
2022/06/07 01:53:28;;;;;;;3.63;1.33;;;21.10;48.90;;;;;;5077993;28;20024;-58
2022/06/07 01:56:04;;;;;;;2.83;1.30;;;21.10;48.90;;;;;;5078070;28;20020;-58
2022/06/07 01:58:31;;;;;;;2.72;1.20;;;21.10;48.90;;;;;;5079232;28;20005;-58
2022/06/07 02:00:57;;;;;;;3.47;1.38;;;21.10;48.90;;;;;;5078193;28;20978;-58
2022/06/07 02:03:23;;;;;;;2.58;1.50;;;21.10;48.90;;;;;;5078003;28;20013;-58
2022/06/07 02:06:03;;;;;;;3.65;1.40;;;21.10;48.90;;;;;;5076934;28;20017;-58
2022/06/07 02:08:29;;;;;;;4.43;1.40;;;21.10;48.90;;;;;;5077168;28;20013;-57
2022/06/07 02:11:06;;;;;;;4.50;1.30;;;21.10;48.90;;;;;;5058829;28;20103;-58
2022/06/07 02:13:31;;;;;;;2.72;1.23;;;21.10;48.90;;;;;;5059111;28;20527;-59
2022/06/07 02:15:57;;;;;;;4.45;1.40;;;21.10;48.90;;;;;;5076640;28;20471;-58
2022/06/07 02:18:26;;;;;;;3.15;1.25;;;21.00;48.80;;;;;;5076530;28;20021;-57
2022/06/07 02:20:57;;;;;;;4.03;1.30;;;21.10;48.90;;;;;;5079986;28;20505;-58
2022/06/07 02:23:30;;;;;;;2.53;1.30;;;21.10;48.90;;;;;;5080576;28;20495;-58
2022/06/07 02:26:01;;;;;;;2.72;1.23;;;21.10;48.90;;;;;;5081572;28;20013;-58
2022/06/07 02:28:28;;;;;;;;;;;21.00;48.90;;;;;;5082517;28;20029;-56
2022/06/07 02:30:54;;;;;;;1.92;1.20;;;21.00;48.80;;;;;;5081981;28;19901;-59
2022/06/07 02:33:19;;;;;;;2.72;1.17;;;21.00;48.90;;;;;;5047532;28;20039;-59
2022/06/07 02:35:46;;;;;;;3.05;1.05;;;21.00;48.90;;;;;;5064486;28;20063;-59
2022/06/07 02:38:14;;;;;;;3.45;1.30;;;21.00;48.90;;;;;;5082552;28;20012;-60
2022/06/07 02:40:40;;;;;;;3.20;1.05;;;21.00;48.90;;;;;;5068359;28;20066;-59
2022/06/07 02:43:06;;;;;;;5.00;1.20;;;21.00;48.90;;;;;;5084969;28;20009;-59
2022/06/07 02:45:33;;;;;;;2.25;1.05;;;21.00;48.90;;;;;;5067381;28;20077;-59
2022/06/07 02:47:59;;;;;;;2.47;1.00;;;21.00;48.90;;;;;;5067585;28;20051;-59
2022/06/07 02:50:26;;;;;;;2.30;1.00;;;21.00;48.90;;;;;;5083850;28;20044;-58
2022/06/07 02:52:52;;;;;;;2.78;1.10;;;21.00;49.00;;;;;;5083189;28;20047;-59
2022/06/07 02:55:19;;;;;;;4.32;1.10;;;21.00;49.00;;;;;;5082519;28;20031;-55
2022/06/07 02:57:45;;;;;;;4.45;1.40;;;21.00;49.00;;;;;;5080247;28;20021;-58
2022/06/07 03:00:13;;;;;;;3.10;1.45;;;21.00;49.00;;;;;;5080724;28;20051;-59
2022/06/07 03:02:39;;;;;;;1.83;1.00;;;21.00;49.00;;;;;;5079947;28;20019;-58
2022/06/07 03:05:05;;;;;;;2.55;1.17;;;21.00;49.00;;;;;;5061206;28;20051;-58
2022/06/07 03:07:31;;;;;;;1.95;1.13;;;21.00;49.00;;;;;;5079091;28;20012;-57
2022/06/07 03:09:57;;;;;;;3.45;1.27;;;20.90;48.90;;;;;;5078969;28;20024;-58
2022/06/07 03:12:23;;;;;;;5.15;1.20;;;21.00;49.00;;;;;;5078964;28;20052;-58
2022/06/07 03:14:49;;;;;;;3.63;1.17;;;20.90;48.90;;;;;;5062812;28;20037;-58
2022/06/07 03:17:14;;;;;;;2.58;1.25;;;20.90;48.90;;;;;;5078848;28;20008;-57
2022/06/07 03:19:41;;;;;;;2.22;1.00;;;20.90;48.90;;;;;;5078099;28;20029;-57
2022/06/07 03:22:07;;;;;;;3.30;1.20;;;20.90;49.00;;;;;;5085290;28;20040;-57
2022/06/07 03:24:34;;;;;;;4.63;1.10;;;20.90;49.00;;;;;;5081214;28;20017;-56
2022/06/07 03:27:00;;;;;;;2.65;1.23;;;20.90;49.00;;;;;;5098838;28;20079;-58
2022/06/07 03:29:26;;;;;;;4.15;1.30;;;20.90;49.00;;;;;;5064308;28;20494;-57
2022/06/07 03:31:52;;;;;;;2.42;1.10;;;20.90;49.00;;;;;;5099160;28;20030;-58
2022/06/07 03:34:17;;;;;;;3.45;1.20;;;20.90;49.00;;;;;;5099081;28;20012;-58
2022/06/07 03:36:43;;;;;;;2.80;1.15;;;20.90;49.00;;;;;;5098816;28;20066;-58
2022/06/07 03:39:10;;;;;;;2.35;1.17;;;20.90;49.60;;;;;;5081978;28;20099;-58
2022/06/07 03:41:36;;;;;;;2.65;1.10;;;20.90;49.00;;;;;;5100897;28;20023;-58
2022/06/07 03:44:03;;;;;;;2.63;1.33;;;20.90;49.00;;;;;;5101337;28;20023;-58
2022/06/07 03:46:29;;;;;;;3.80;0.93;;;20.90;49.10;;;;;;5101284;28;20087;-58
2022/06/07 03:48:55;;;;;;;2.50;1.05;;;20.90;49.10;;;;;;5100205;28;20023;-55
2022/06/07 03:51:23;;;;;;;2.22;1.27;;;20.90;49.10;;;;;;5082082;28;20154;-58
2022/06/07 03:53:49;;;;;;;3.70;1.17;;;20.90;49.10;;;;;;5100026;28;20403;-59
2022/06/07 03:56:15;;;;;;;3.53;0.95;;;20.90;49.10;;;;;;5080516;28;20074;-57
2022/06/07 03:58:41;;;;;;;4.47;1.23;;;20.90;49.10;;;;;;5098599;28;20028;-57
2022/06/07 04:01:09;;;;;;;2.35;0.90;;;20.90;49.20;;;;;;5100048;28;20032;-58
2022/06/07 04:03:36;;;;;;;5.18;1.20;;;20.90;49.10;;;;;;5100998;28;20058;-58
2022/06/07 04:06:02;;;;;;;3.38;1.05;;;20.90;49.10;;;;;;5101740;28;20016;-58
2022/06/07 04:08:27;;;;;;;2.63;0.80;;;20.90;49.60;;;;;;5103413;28;20008;-58
2022/06/07 04:10:58;;;;;;;4.40;1.45;;;20.90;49.10;;;;;;5104780;28;20142;-57
2022/06/07 04:13:26;;;;;;;1.27;0.88;;;20.90;49.20;;;;;;5103860;28;20066;-58
2022/06/07 04:15:52;;;;;;;2.30;1.00;;;20.90;49.10;;;;;;5100265;28;20034;-55
2022/06/07 04:18:19;;;;;;;2.83;1.00;;;20.90;49.20;;;;;;5099366;28;20062;-59
2022/06/07 04:20:45;;;;;;;3.03;1.15;;;20.90;49.20;;;;;;5098959;28;20470;-59
2022/06/07 04:23:19;;;;;;;2.47;1.20;;;20.90;49.20;;;;;;5097812;28;20136;-56
2022/06/07 04:25:45;;;;;;;4.40;1.30;;;20.90;49.30;;;;;;5100146;28;20020;-58
2022/06/07 04:28:11;;;;;;;5.88;1.15;;;20.90;49.20;;;;;;5101103;28;20054;-58
2022/06/07 04:30:37;;;;;;;3.42;1.38;;;20.90;49.20;;;;;;5100265;28;20013;-58
2022/06/07 04:33:03;;;;;;;2.80;1.10;;;20.90;49.20;;;;;;5100374;28;20502;-59
2022/06/07 04:35:29;;;;;;;2.15;0.98;;;20.90;49.20;;;;;;5100720;28;20032;-58
2022/06/07 04:37:55;;;;;;;3.08;1.27;;;20.90;49.30;;;;;;5083234;28;20028;-58
2022/06/07 04:40:21;;;;;;;1.88;1.00;;;20.90;49.30;;;;;;5099447;28;20043;-56
2022/06/07 04:42:47;;;;;;;5.18;1.50;;;20.90;49.30;;;;;;5098749;28;20467;-57
2022/06/07 04:45:15;;;;;;;4.07;1.33;;;20.90;49.30;;;;;;5081966;28;20022;-59
2022/06/07 04:47:45;;;;;;;3.22;1.20;;;20.90;49.30;;;;;;5100190;28;20018;-59
2022/06/07 04:50:13;;;;;;;1.80;0.80;;;20.90;49.30;;;;;;5100752;28;20095;-59
2022/06/07 04:52:42;;;;;;;2.65;1.02;;;20.90;49.30;;;;;;5100550;28;20012;-59
2022/06/07 04:55:08;;;;;;;2.75;1.20;;;20.90;49.30;;;;;;5081169;28;20027;-58
2022/06/07 04:57:34;;;;;;;2.63;1.65;;;20.90;49.90;;;;;;5096347;28;20012;-58
2022/06/07 05:00:00;;;;;;;3.50;1.20;;;20.90;49.30;;;;;;5077143;28;20028;-57
2022/06/07 05:02:25;;;;;;;2.63;1.15;;;20.90;49.30;;;;;;5094727;28;20029;-57
2022/06/07 05:04:51;;;;;;;9.98;1.10;;;20.90;49.50;;;;;;5095535;28;20375;-55
2022/06/07 05:07:17;;;;;;;3.33;1.20;;;20.90;49.40;;;;;;5094589;28;20020;-58
2022/06/07 05:09:43;;;;;;;3.47;1.27;;;20.90;49.40;;;;;;5060333;28;20046;-57
2022/06/07 05:12:10;;;;;;;2.10;1.05;;;20.90;49.40;;;;;;5094457;28;20032;-55
2022/06/07 05:14:36;;;;;;;3.38;1.13;;;20.90;49.40;;;;;;5094498;28;20424;-56
2022/06/07 05:17:02;;;;;;;3.75;1.17;;;20.90;49.40;;;;;;5094924;28;20020;-57
2022/06/07 05:19:29;;;;;;;2.28;1.13;;;20.90;49.40;;;;;;5094431;28;20017;-55
2022/06/07 05:21:55;;;;;;;3.17;1.25;;;20.90;49.40;;;;;;5094499;28;20044;-55
2022/06/07 05:24:21;;;;;;;3.03;1.33;;;20.90;49.60;;;;;;5095131;28;20470;-57
2022/06/07 05:26:49;;;;;;;3.13;1.13;;;20.90;49.60;;;;;;5094516;28;20020;-56
2022/06/07 05:29:24;;;;;;;3.22;1.20;;;20.90;49.60;;;;;;5076045;28;20032;-55
2022/06/07 05:31:50;;;;;;;3.80;1.20;;;20.90;49.60;;;;;;5094241;28;20101;-57
2022/06/07 05:34:16;;;;;;;3.15;1.15;;;20.90;49.70;;;;;;5076927;28;20080;-56
2022/06/07 05:36:42;;;;;;;2.55;1.40;;;20.90;50.20;;;;;;5094278;28;20016;-55
2022/06/07 05:39:22;;;;;;;1.58;1.00;;;20.90;49.80;;;;;;5093786;28;20016;-55
2022/06/07 05:41:47;;;;;;;2.08;1.02;;;20.90;49.90;;;;;;5093162;28;20020;-55
2022/06/07 05:44:13;;;;;;;2.95;1.13;;;20.90;49.80;;;;;;5058247;28;20019;-55
2022/06/07 05:46:40;;;;;;;3.05;1.33;;;20.90;49.90;;;;;;5074760;28;20107;-53
2022/06/07 05:49:06;;;;;;;6.63;1.27;;;20.90;49.90;;;;;;5093196;28;20020;-54
2022/06/07 05:51:32;;;;;;;3.22;1.27;;;20.90;49.90;;;;;;5093200;28;20019;-55
2022/06/07 05:53:59;;;;;;;6.35;1.35;;;20.90;49.90;;;;;;5074346;28;20016;-53
2022/06/07 05:56:25;;;;;;;1.98;1.00;;;20.90;50.10;;;;;;5092710;28;20546;-55
2022/06/07 05:58:51;;;;;;;2.97;1.20;;;20.90;50.10;;;;;;5074539;28;20036;-55
2022/06/07 06:01:17;;;;;;;2.55;1.20;;;20.90;50.10;;;;;;5091994;28;20031;-55
2022/06/07 06:03:42;;;;;;;5.80;1.60;;;21.00;50.30;;;;;;5092285;28;20114;-53
2022/06/07 06:06:09;;;;;;;2.13;1.00;;;20.90;50.30;;;;;;5092155;28;20016;-55
2022/06/07 06:11:20;;;;;;;3.00;1.10;;;21.00;50.30;;;;;;5092279;28;20027;-55
2022/06/07 06:13:46;;;;;;;3.00;1.13;;;21.00;50.20;;;;;;5092324;28;20035;-56
2022/06/07 06:16:14;;;;;;;5.13;1.55;;;21.00;50.30;;;;;;5091927;28;20411;-55
2022/06/07 06:18:41;;;;;;;3.70;1.25;;;21.00;50.30;;;;;;5092107;28;20024;-55
2022/06/07 06:21:07;;;;;;;2.83;1.02;;;21.00;50.30;;;;;;5090614;28;20066;-55
2022/06/07 06:23:33;;;;;;;3.85;1.20;;;21.00;50.20;;;;;;5090169;28;20047;-55
2022/06/07 06:25:58;;;;;;;2.13;1.05;;;21.10;50.30;;;;;;5090457;28;20016;-52
2022/06/07 06:28:25;;;;;;;4.10;1.27;;;21.10;50.40;;;;;;5091015;28;20134;-55
2022/06/07 06:30:51;;;;;;;4.90;1.40;;;21.10;50.30;;;;;;5090719;28;20017;-52
2022/06/07 06:33:18;;;;;;;2.30;1.00;;;21.10;50.40;;;;;;5072717;28;20026;-54
2022/06/07 06:35:51;;;;;;;3.55;1.17;;;21.10;50.40;;;;;;5091081;28;20086;-55
2022/06/07 06:38:17;;;;;;;3.30;1.17;;;21.10;50.50;;;;;;5091143;28;20077;-50
2022/06/07 06:40:45;;;;;;;2.38;1.25;;;21.10;50.60;;;;;;5090768;28;20024;-53
2022/06/07 06:43:11;;;;;;;2.10;1.00;;;21.10;50.70;;;;;;5090857;28;20008;-52
2022/06/07 06:45:37;;;;;;;3.67;1.20;;;21.10;50.70;;;;;;5072693;28;20296;-53
2022/06/07 06:48:03;;;;;;;4.53;1.30;;;21.10;50.80;;;;;;5091205;28;20011;-53
2022/06/07 06:50:30;;;;;;;2.65;1.50;;;21.10;50.80;;;;;;5090838;28;20383;-51
2022/06/07 06:52:55;;;;;;;3.38;1.27;;;21.10;50.80;;;;;;5090764;28;20531;-52
2022/06/07 06:55:24;;;;;;;4.00;1.35;;;21.10;50.80;;;;;;5090538;28;20428;-53
2022/06/07 06:57:50;;;;;;;1.88;1.02;;;21.10;50.90;;;;;;5091101;28;20024;-52
2022/06/07 07:00:16;;;;;;;2.90;1.30;;;21.10;50.90;;;;;;5090572;28;20014;-52
2022/06/07 07:02:43;;;;;;;1.90;0.98;;;21.10;51.00;;;;;;5090457;28;20000;-54
2022/06/07 07:05:11;;;;;;;1.67;1.00;;;21.20;51.00;;;;;;5072513;28;20016;-53
2022/06/07 07:07:40;;;;;;;3.35;1.38;;;21.20;50.90;;;;;;5094462;28;20017;-52
2022/06/07 07:10:06;;;;;;;3.83;1.10;;;21.20;51.00;;;;;;5093718;28;20035;-53
2022/06/07 07:12:32;;;;;;;4.22;1.38;;;21.20;51.00;;;;;;5094069;28;20443;-54
2022/06/07 07:14:59;;;;;;;3.67;1.20;;;21.20;51.10;;;;;;5094278;28;20335;-52
2022/06/07 07:17:25;;;;;;;9.60;1.08;;;21.20;51.20;;;;;;5094063;28;20042;-57
2022/06/07 07:19:51;;;;;;;6.95;1.38;;;21.20;51.70;;;;;;5094360;28;20019;-51
2022/06/07 07:22:17;;;;;;;6.80;1.60;;;21.30;52.00;;;;;;5094310;28;20142;-50
2022/06/07 07:24:43;;;;;;;7.93;1.73;;;21.30;53.20;;;;;;5094563;28;20474;-52
2022/06/07 07:27:09;;;;;;;3.95;1.40;;;21.10;54.10;;;;;;5094708;28;20084;-55
2022/06/07 07:29:35;;;;;;;10.90;1.65;;;21.00;54.20;;;;;;5076775;28;20005;-55
2022/06/07 07:32:00;;;;;;;8.07;1.42;;;20.90;54.80;;;;;;5095011;28;20085;-55
2022/06/07 07:34:26;;;;;;;6.10;1.60;;;20.90;55.30;;;;;;5094957;28;20052;-56
2022/06/07 07:36:57;;;;;;;3.28;1.20;;;20.90;55.40;;;;;;5094601;28;20023;-55
2022/06/07 07:39:23;;;;;;;5.63;1.13;;;20.60;56.30;;;;;;5095000;28;20019;-52
2022/06/07 07:41:52;;;;;;;2.63;1.05;;;20.90;56.20;;;;;;5094675;28;20532;-52
2022/06/07 07:44:18;;;;;;;5.10;1.60;;;20.60;56.60;;;;;;5094357;28;20012;-56
2022/06/07 07:46:44;;;;;;;2.70;0.90;;;20.90;56.10;;;;;;5094277;28;20012;-53
2022/06/07 07:49:12;;;;;;;6.55;1.30;;;20.90;56.20;;;;;;5093907;28;20014;-53
2022/06/07 07:51:39;;;;;;;6.85;1.08;;;21.10;56.20;;;;;;5075974;28;20012;-50
2022/06/07 07:54:06;;;;;;;2.22;1.20;;;20.80;56.20;;;;;;5093801;28;20016;-54
2022/06/07 07:56:32;;;;;;;3.80;0.98;;;20.90;56.60;;;;;;5075798;28;20202;-49
2022/06/07 07:58:57;;;;;;;2.95;1.10;;;20.70;57.60;;;;;;5075540;28;20047;-50
2022/06/07 08:01:25;;;;;;;7.90;1.83;;;20.50;57.50;;;;;;5093669;28;20183;-54
2022/06/07 08:03:52;;;;;;;5.57;1.30;;;20.80;58.10;;;;;;5076215;28;20095;-53
2022/06/07 08:06:19;;;;;;;6.07;1.48;;;20.90;57.20;;;;;;5095138;28;20040;-53
2022/06/07 08:08:45;;;;;;;9.98;1.63;;;20.80;57.10;;;;;;5094839;28;20058;-52
2022/06/07 08:11:11;;;;;;;5.32;1.08;;;20.90;57.00;;;;;;5095228;28;20020;-55
2022/06/07 08:13:37;;;;;;;6.75;1.20;;;20.70;57.40;;;;;;5094463;28;20073;-57
2022/06/07 08:16:04;;;;;;;4.70;1.20;;;20.60;57.60;;;;;;5075315;28;20422;-55
2022/06/07 08:18:33;;;;;;;12.77;1.50;;;20.60;58.00;;;;;;5092253;28;20012;-56
2022/06/07 08:21:01;;;;;;;7.20;1.45;;;20.70;58.10;;;;;;5093498;28;20024;-54
2022/06/07 08:23:31;;;;;;;13.88;1.70;;;20.60;59.20;;;;;;5092595;28;20039;-53
2022/06/07 08:25:57;;;;;;;13.30;1.52;;;20.90;59.00;;;;;;5092716;28;20450;-52
2022/06/07 08:28:23;;;;;;;9.38;1.65;;;21.30;58.70;;;;;;5092471;28;20032;-50
2022/06/07 08:30:50;;;;;;;17.67;2.10;;;21.50;58.50;;;;;;5093148;28;20084;-47
2022/06/07 08:38:57;;;;;;;14.02;2.33;;;21.90;58.40;;;;;;5092552;28;20108;-48
2022/06/07 08:41:49;;;;;;;16.67;2.17;;;22.10;58.60;;;;;;5092492;28;20031;-51
2022/06/07 08:44:23;;;;;;;14.80;2.00;;;22.40;58.60;;;;;;5074360;28;20012;-46
2022/06/07 08:46:50;;;;;;;18.88;2.22;;;22.50;58.50;;;;;;5092656;28;20016;-45
2022/06/07 08:49:17;;;;;;;15.40;1.80;;;22.60;58.60;;;;;;5057561;28;20087;-52
2022/06/07 08:51:49;;;;;;;19.63;2.65;;;22.70;58.50;;;;;;5056881;28;20165;-50
2022/06/07 08:54:20;;;;;;;12.90;2.20;;;22.80;58.70;;;;;;5092445;28;20031;-52
2022/06/07 08:56:46;;;;;;;20.55;2.42;;;22.90;58.90;;;;;;5091973;28;20173;-46
2022/06/07 08:59:15;;;;;;;15.40;2.10;;;22.90;58.90;;;;;;5073726;28;20050;-49
2022/06/07 09:01:40;;;;;;;16.63;2.15;;;23.00;59.10;;;;;;5091601;28;20032;-49
2022/06/07 09:04:25;;;;;;;26.33;3.03;;;23.10;59.10;;;;;;5092193;28;20016;-50
2022/06/07 09:06:56;;;;;;;26.60;2.83;;;23.10;59.40;;;;;;5091554;28;20047;-48
2022/06/07 09:12:09;;;;;;;13.75;2.15;;;22.90;58.40;;;;;;5091715;28;20020;-48
2022/06/07 09:12:14;;;;;;;33.95;4.40;;;22.70;57.80;;;;;;5091803;28;20024;-48
2022/06/07 09:14:45;;;;;;;19.42;2.33;;;22.60;57.50;;;;;;5074768;28;20020;-48
2022/06/07 09:17:21;;;;;;;33.13;3.33;;;22.90;57.30;;;;;;5092077;28;20016;-46
2022/06/07 09:19:48;;;;;;;17.63;2.90;;;23.00;57.10;;;;;;5074212;28;20012;-48
2022/06/07 09:22:29;;;;;;;20.05;2.22;;;23.10;56.80;;;;;;5057083;28;20056;-49
2022/06/07 09:25:32;;;;;;;20.42;2.53;;;23.20;56.70;;;;;;5092635;28;20008;-49
2022/06/07 09:27:58;;;;;;;22.85;2.67;;;23.30;56.70;;;;;;5092353;28;20013;-52
2022/06/07 09:30:29;;;;;;;14.88;2.42;;;23.30;56.80;;;;;;5074204;28;20012;-49
2022/06/07 09:32:55;;;;;;;21.45;2.10;;;23.20;56.90;;;;;;5073746;28;20550;-50
2022/06/07 09:35:37;;;;;;;15.55;1.75;;;23.20;57.10;;;;;;5092072;28;20048;-51
2022/06/07 09:38:08;;;;;;;12.25;2.20;;;23.30;57.10;;;;;;5091648;28;20008;-50
2022/06/07 09:40:41;;;;;;;11.05;1.90;;;23.30;57.20;;;;;;5073673;28;20038;-51
2022/06/07 09:43:13;;;;;;;20.13;2.65;;;23.30;57.30;;;;;;5091482;28;20382;-49
2022/06/07 09:45:45;;;;;;;15.27;2.45;;;23.40;57.30;;;;;;5072974;28;20097;-50
2022/06/07 09:48:18;;;;;;;32.53;3.28;;;23.50;57.20;;;;;;5091656;28;20012;-46
2022/06/07 09:50:53;;;;;;;12.73;2.67;;;23.50;57.40;;;;;;5091708;28;20114;-50
2022/06/07 09:53:19;;;;;;;19.10;3.20;;;23.50;57.80;;;;;;5057177;28;20028;-50
2022/06/07 09:55:46;;;;;;;23.45;2.72;;;23.60;58.00;;;;;;5090862;28;20109;-45
2022/06/07 09:58:22;;;;;;;32.42;3.58;;;23.50;58.20;;;;;;5074875;28;20012;-51
2022/06/07 10:00:57;;;;;;;30.20;3.20;;;23.30;58.30;;;;;;5093231;28;20028;-53
2022/06/07 10:04:04;;;;;;;30.73;3.35;;;23.10;58.50;;;;;;5076240;28;20016;-53
2022/06/07 10:06:35;;;;;;;21.40;2.97;;;23.00;58.90;;;;;;4976421;28;20037;-55
2022/06/07 10:09:08;;;;;;;22.05;3.05;;;22.90;59.10;;;;;;4977926;28;20121;-54
2022/06/07 10:12:11;;;;;;;32.45;3.67;;;22.80;59.20;;;;;;4976845;28;20030;-56
2022/06/07 10:14:48;;;;;;;15.80;2.53;;;22.80;59.20;;;;;;4991420;28;20057;-53
2022/06/07 10:17:35;;;;;;;16.85;2.80;;;22.80;59.30;;;;;;4992152;28;20569;-53
2022/06/07 10:20:13;;;;;;;30.38;3.25;;;22.80;59.30;;;;;;4991233;28;20033;-53
2022/06/07 10:23:16;;;;;;;26.80;3.00;;;22.80;59.20;;;;;;4978374;28;20077;-51
2022/06/07 10:25:52;;;;;;;13.15;2.63;;;22.80;59.20;;;;;;4933800;29;20044;-49
2022/06/07 10:28:20;;;;;;;21.05;2.75;;;22.80;59.10;;;;;;4933892;29;20038;-52
2022/06/07 10:30:57;;;;;;;13.65;2.65;;;22.80;59.10;;;;;;4901957;29;20380;-51
2022/06/07 10:33:29;;;;;;;14.27;2.13;;;22.70;58.90;;;;;;4934492;29;20024;-53
2022/06/07 10:36:14;;;;;;;22.52;2.60;;;22.70;58.90;;;;;;4933840;29;20032;-54
2022/06/07 10:39:01;;;;;;;11.93;2.65;;;22.70;58.90;;;;;;4918334;29;20562;-52
2022/06/07 10:41:32;;;;;;;16.73;2.58;;;22.70;58.90;;;;;;4935569;29;20047;-54
2022/06/07 10:44:23;;;;;;;17.35;2.47;;;22.70;58.80;;;;;;4995886;28;20030;-51
2022/06/07 10:46:48;;;;;;;12.57;2.35;;;22.70;58.80;;;;;;4997029;28;20025;-49
2022/06/07 10:49:48;;;;;;;16.35;2.65;;;22.70;58.90;;;;;;5012843;28;20022;-52
2022/06/07 10:52:20;;;;;;;24.55;2.35;;;22.70;60.00;;;;;;5002392;28;20573;-54
2022/06/07 10:55:09;;;;;;;6.78;2.00;;;22.80;59.80;;;;;;5014130;28;20022;-51
2022/06/07 10:57:42;;;;;;;10.77;1.27;;;22.70;59.10;;;;;;5013305;28;20457;-48
2022/06/07 11:00:35;;;;;;;8.20;1.27;;;22.50;59.20;;;;;;4999263;28;20025;-50
2022/06/07 11:03:07;;;;;;;4.55;1.30;;;22.30;59.70;;;;;;5049858;28;20394;-51
2022/06/07 11:11:18;;;;;;;5.00;1.42;;;22.00;60.10;;;;;;5095175;28;20070;-51
2022/06/07 11:14:21;;;;;;;10.00;1.83;;;22.10;61.20;;;;;;5077395;28;20012;-47
2022/06/07 11:17:12;;;;;;;5.30;1.42;;;22.20;60.60;;;;;;5076369;28;20100;-53
2022/06/07 11:19:39;;;;;;;19.20;2.00;;;22.60;60.50;;;;;;5081410;28;20142;-52
2022/06/07 11:22:06;;;;;;;10.77;1.40;;;22.90;60.50;;;;;;5094533;28;20056;-54
2022/06/07 11:24:32;;;;;;;13.82;1.40;;;23.10;59.90;;;;;;5076209;28;20443;-50
2022/06/07 11:27:15;;;;;;;8.52;1.50;;;23.40;59.30;;;;;;5094834;28;20062;-51
2022/06/07 11:29:41;;;;;;;8.52;1.98;;;23.50;59.00;;;;;;5094213;28;20475;-51
2022/06/07 11:32:40;;;;;;;8.35;1.67;;;23.60;58.70;;;;;;5076461;28;20043;-51
2022/06/07 11:35:44;;;;;;;7.78;1.60;;;23.70;58.60;;;;;;5076200;28;20038;-52
2022/06/07 11:38:18;;;;;;;8.38;1.30;;;23.80;58.60;;;;;;5092731;28;20020;-47
2022/06/07 11:40:45;;;;;;;17.55;2.42;;;23.80;58.30;;;;;;5093070;28;20047;-52
2022/06/07 11:43:49;;;;;;;27.77;3.75;;;23.80;57.10;;;;;;5075864;28;20012;-50
2022/06/07 11:46:44;;;;;;;23.90;4.13;;;23.00;58.30;;;;;;5075516;28;20386;-45
2022/06/07 11:49:25;;;;;;;12.05;2.65;;;22.80;58.80;;;;;;5044148;28;20451;-51
2022/06/07 11:52:11;;;;;;;17.23;2.97;;;22.90;58.80;;;;;;5092735;28;20031;-52
2022/06/07 11:54:47;;;;;;;19.25;2.65;;;23.10;59.00;;;;;;5077038;28;20058;-50
2022/06/07 11:57:27;;;;;;;14.23;2.10;;;23.40;58.50;;;;;;5093697;28;20116;-51
2022/06/07 12:00:00;;;;;;;20.38;2.00;;;23.50;57.90;;;;;;5075330;28;20046;-52
2022/06/07 12:02:34;;;;;;;14.75;1.90;;;23.70;57.80;;;;;;5092870;28;20020;-50
2022/06/07 12:05:29;;;;;;;13.50;2.17;;;23.80;57.30;;;;;;5093542;28;20020;-52
2022/06/07 12:08:00;;;;;;;9.20;2.03;;;23.80;57.00;;;;;;5093422;28;20019;-54
2022/06/07 12:10:33;;;;;;;15.27;2.00;;;23.60;57.30;;;;;;5094261;28;20020;-50
2022/06/07 12:13:02;;;;;;;9.80;2.10;;;23.60;57.00;;;;;;5075146;28;20097;-50
2022/06/07 12:15:38;;;;;;;11.63;2.75;;;23.70;57.00;;;;;;5093988;28;20111;-50
2022/06/07 12:18:06;;;;;;;7.35;2.20;;;23.30;56.90;;;;;;5093283;28;20031;-50
2022/06/07 12:20:38;;;;;;;6.43;2.15;;;23.40;57.30;;;;;;5093292;28;20458;-50
2022/06/07 12:23:18;;;;;;;7.88;2.65;;;23.00;57.00;;;;;;5074864;28;20040;-52
2022/06/07 12:25:57;;;;;;;11.57;2.00;;;22.70;58.80;;;;;;5093260;28;20052;-50
2022/06/07 12:28:28;;;;;;;7.00;2.53;;;23.00;58.00;;;;;;5074810;28;20012;-53
2022/06/07 12:30:56;;;;;;;7.65;2.10;;;23.10;57.50;;;;;;5092718;28;20047;-49
2022/06/07 12:33:29;;;;;;;8.43;2.45;;;23.00;57.00;;;;;;5057859;28;20443;-51
2022/06/07 12:36:14;;;;;;;10.18;2.70;;;22.90;57.50;;;;;;5092310;28;20051;-53
2022/06/07 12:38:44;;;;;;;7.22;2.40;;;23.00;57.60;;;;;;5092643;28;20016;-57
2022/06/07 12:41:13;;;;;;;5.47;2.33;;;22.90;58.00;;;;;;5092463;28;20035;-55
2022/06/07 12:43:48;;;;;;;9.38;2.75;;;22.90;57.90;;;;;;5093071;28;20493;-51
2022/06/07 12:46:22;;;;;;;16.77;2.42;;;22.60;59.20;;;;;;5093067;28;20067;-54
2022/06/07 12:48:49;;;;;;;16.23;2.65;;;22.10;59.70;;;;;;5092805;28;20153;-54
2022/06/07 12:51:21;;;;;;;10.00;2.20;;;21.70;61.10;;;;;;5092856;28;20079;-57
2022/06/07 12:53:48;;;;;;;12.60;2.13;;;22.30;60.90;;;;;;5093031;28;20028;-53
2022/06/07 12:56:15;;;;;;;6.35;2.53;;;22.70;59.70;;;;;;5074970;28;20028;-51
2022/06/07 12:58:49;;;;;;;8.27;2.63;;;23.00;59.60;;;;;;5057736;28;20016;-48
2022/06/07 13:01:27;;;;;;;7.57;2.10;;;23.10;58.20;;;;;;5092464;28;20115;-55
2022/06/07 13:03:55;;;;;;;5.55;2.45;;;23.00;57.90;;;;;;5074282;28;20469;-50
2022/06/07 13:06:21;;;;;;;4.90;2.78;;;22.90;58.30;;;;;;5074305;28;20021;-55
2022/06/07 13:09:06;;;;;;;4.97;3.10;;;22.40;59.40;;;;;;5092315;28;20431;-56
2022/06/07 13:11:37;;;;;;;5.55;2.75;;;22.10;60.20;;;;;;5074088;28;20016;-54
2022/06/07 13:14:03;;;;;;;12.50;3.58;;;22.30;60.00;;;;;;5057492;28;20008;-52
2022/06/07 13:16:39;;;;;;;10.70;2.90;;;22.30;60.30;;;;;;5091633;28;20503;-53
2022/06/07 13:19:21;;;;;;;13.18;3.25;;;22.60;60.00;;;;;;5092344;28;20012;-53
2022/06/07 13:22:00;;;;;;;8.10;2.78;;;22.80;59.50;;;;;;5075017;28;20036;-52